Time;durP1;ratioP1;P1;durP2;ratioP2;P2;SDS_P1;SDS_P2;PMS_P1;PMS_P2;Temp;Humidity;BMP_temperature;BMP_pressure;BME280_temperature;BME280_humidity;BME280_pressure;Samples;Min_cycle;Max_cycle;Signal;HPM_P1;HPM_P2
2023/09/24 00:01:16;;;;;;;;;;;;;;;;;;6290141;22;19918;-84
2023/09/24 00:03:44;;;;;;;;;;;;;;;;;;6314667;22;20002;-84
2023/09/24 00:06:11;;;;;;;;;;;;;;;;;;6319864;22;19919;-85
2023/09/24 00:08:39;;;;;;;;;;;;;;;;;;6289749;22;19922;-85
2023/09/24 00:11:08;;;;;;;;;;;;;;;;;;6293008;22;20009;-85
2023/09/24 00:13:35;;;;;;;;;;;;;;;;;;6317453;22;19918;-84
2023/09/24 00:16:06;;;;;;;;;;;;;;;;;;6292118;22;20040;-84
2023/09/24 00:18:33;;;;;;;;;;;;;;;;;;6316314;22;19925;-85
2023/09/24 00:21:01;;;;;;;;;;;;;;;;;;6293912;22;19919;-85
2023/09/24 00:23:28;;;;;;;;;;;;;;;;;;6261424;22;20007;-85
2023/09/24 00:25:56;;;;;;;;;;;;;;;;;;6289020;22;19919;-85
2023/09/24 00:28:23;;;;;;;;;;;;;;;;;;6264501;22;19922;-85
2023/09/24 00:30:51;;;;;;;;;;;;;;;;;;6288469;22;19923;-84
2023/09/24 00:33:19;;;;;;;;;;;;;;;;;;6285567;22;19925;-85
2023/09/24 00:35:46;;;;;;;;;;;;;;;;;;6286155;22;20006;-84
2023/09/24 00:38:13;;;;;;;;;;;;;;;;;;6285634;22;19919;-85
2023/09/24 00:40:40;;;;;;;;;;;;;;;;;;6282993;22;19976;-85
2023/09/24 00:43:08;;;;;;;;;;;;;;;;;;6262033;22;19919;-85
2023/09/24 00:45:37;;;;;;;;;;;;;;;;;;6284572;22;19915;-84
2023/09/24 00:48:04;;;;;;;;;;;;;;;;;;6259369;22;20326;-85
2023/09/24 00:50:33;;;;;;;;;;;;;;;;;;6285228;22;19919;-84
2023/09/24 00:53:01;;;;;;;;;;;;;;;;;;6286680;22;19919;-85
2023/09/24 00:55:34;;;;;;;;;;;;;;;;;;6255779;22;20480;-85
2023/09/24 00:58:02;;;;;;;;;;;;;;;;;;6286316;22;20335;-85
2023/09/24 01:00:30;;;;;;;;;;;;;;;;;;6285470;22;19954;-85
2023/09/24 01:02:58;;;;;;;;;;;;;;;;;;6260027;22;19950;-84
2023/09/24 01:05:25;;;;;;;;;;;;;;;;;;6285631;22;20329;-85
2023/09/24 01:07:55;;;;;;;;;;;;;;;;;;6260504;22;19930;-85
2023/09/24 01:10:23;;;;;;;;;;;;;;;;;;6261017;22;19957;-85
2023/09/24 01:12:50;;;;;;;;;;;;;;;;;;6285727;22;20446;-85
2023/09/24 01:15:17;;;;;;;;;;;;;;;;;;6257630;22;19930;-85
2023/09/24 01:17:44;;;;;;;;;;;;;;;;;;6257574;22;19926;-85
2023/09/24 01:20:30;;;;;;;;;;;;;;;;;;6288225;22;19919;-85
2023/09/24 01:22:59;;;;;;;;;;;;;;;;;;6285971;22;19993;-85
2023/09/24 01:25:25;;;;;;;;;;;;;;;;;;6285826;22;20003;-85
2023/09/24 01:27:52;;;;;;;;;;;;;;;;;;6262816;22;20316;-85
2023/09/24 01:30:20;;;;;;;;;;;;;;;;;;6289390;22;20009;-85
2023/09/24 01:32:48;;;;;;;;;;;;;;;;;;6257658;22;19922;-85
2023/09/24 01:35:17;;;;;;;;;;;;;;;;;;6230321;22;19918;-85
2023/09/24 01:37:44;;;;;;;;;;;;;;;;;;6230706;22;19918;-85
2023/09/24 01:40:21;;;;;;;;;;;;;;;;;;6236332;22;20001;-84
2023/09/24 01:42:55;;;;;;;;;;;;;;;;;;6257417;22;19918;-85
2023/09/24 01:45:22;;;;;;;;;;;;;;;;;;6260524;22;19973;-85
2023/09/24 01:47:55;;;;;;;;;;;;;;;;;;6258859;22;19965;-85
2023/09/24 01:50:41;;;;;;;;;;;;;;;;;;;;;
2023/09/24 01:53:14;;;;;;;;;;;;;;;;;;6256691;22;19914;-85
2023/09/24 01:55:41;;;;;;;;;;;;;;;;;;6230674;22;19914;-85
2023/09/24 01:58:09;;;;;;;;;;;;;;;;;;6258268;22;19998;-85
2023/09/24 02:00:36;;;;;;;;;;;;;;;;;;6234425;22;19942;-85
2023/09/24 02:03:09;;;;;;;;;;;;;;;;;;6235227;22;20300;-85
2023/09/24 02:05:39;;;;;;;;;;;;;;;;;;6284355;22;19969;-85
2023/09/24 02:08:09;;;;;;;;;;;;;;;;;;6286640;22;20192;-86
2023/09/24 02:10:40;;;;;;;;;;;;;;;;;;6287586;22;19925;-86
2023/09/24 02:13:07;;;;;;;;;;;;;;;;;;6288788;22;19921;-85
2023/09/24 02:15:35;;;;;;;;;;;;;;;;;;6261397;22;19930;-85
2023/09/24 02:18:04;;;;;;;;;;;;;;;;;;6259985;22;19918;-85
2023/09/24 02:20:33;;;;;;;;;;;;;;;;;;6285129;22;20003;-85
2023/09/24 02:23:00;;;;;;;;;;;;;;;;;;6262759;22;19998;-85
2023/09/24 02:26:01;;;;;;;;;;;;;;;;;;6261994;22;19926;-85
2023/09/24 02:28:25;;;;;;;;;;;;;;;;;;6284366;22;19969;-85
2023/09/24 02:30:53;;;;;;;;;;;;;;;;;;6288653;22;20811;-85
2023/09/24 02:33:20;;;;;;;;;;;;;;;;;;6286192;22;19919;-85
2023/09/24 02:35:49;;;;;;;;;;;;;;;;;;6284271;22;20303;-85
2023/09/24 02:38:16;;;;;;;;;;;;;;;;;;6261239;22;19918;-85
2023/09/24 02:40:44;;;;;;;;;;;;;;;;;;6285829;22;19914;-85
2023/09/24 02:43:15;;;;;;;;;;;;;;;;;;6261065;22;19919;-85
2023/09/24 02:45:42;;;;;;;;;;;;;;;;;;6284418;22;20686;-86
2023/09/24 02:48:09;;;;;;;;;;;;;;;;;;6260381;22;19923;-85
2023/09/24 02:50:36;;;;;;;;;;;;;;;;;;6286766;22;19984;-85
2023/09/24 02:53:09;;;;;;;;;;;;;;;;;;6262286;22;19919;-86
2023/09/24 02:55:36;;;;;;;;;;;;;;;;;;6260420;22;20339;-86
2023/09/24 02:58:09;;;;;;;;;;;;;;;;;;6287796;22;19995;-85
2023/09/24 03:00:43;;;;;;;;;;;;;;;;;;6260821;22;19919;-85
2023/09/24 03:03:10;;;;;;;;;;;;;;;;;;6260458;22;20001;-85
2023/09/24 03:05:44;;;;;;;;;;;;;;;;;;6257883;22;19919;-85
2023/09/24 03:08:15;;;;;;;;;;;;;;;;;;6261587;22;20174;-85
2023/09/24 03:10:46;;;;;;;;;;;;;;;;;;6286207;22;20386;-85
2023/09/24 03:13:13;;;;;;;;;;;;;;;;;;6260574;22;19918;-85
2023/09/24 03:15:40;;;;;;;;;;;;;;;;;;6258781;22;19955;-85
2023/09/24 03:18:08;;;;;;;;;;;;;;;;;;6262240;22;19919;-85
2023/09/24 03:20:36;;;;;;;;;;;;;;;;;;6258973;22;19975;-85
2023/09/24 03:23:23;;;;;;;;;;;;;;;;;;6285734;22;20018;-85
2023/09/24 03:25:50;;;;;;;;;;;;;;;;;;6261164;22;19918;-85
2023/09/24 03:28:17;;;;;;;;;;;;;;;;;;6264165;22;20152;-85
2023/09/24 03:30:45;;;;;;;;;;;;;;;;;;6285366;22;20807;-84
2023/09/24 03:33:11;;;;;;;;;;;;;;;;;;6261163;22;20410;-85
2023/09/24 03:35:47;;;;;;;;;;;;;;;;;;6285533;22;20350;-85
2023/09/24 03:38:18;;;;;;;;;;;;;;;;;;6261442;22;20056;-84
2023/09/24 03:40:52;;;;;;;;;;;;;;;;;;6259780;22;19930;-85
2023/09/24 03:43:25;;;;;;;;;;;;;;;;;;6261596;22;19968;-84
2023/09/24 03:45:56;;;;;;;;;;;;;;;;;;6287662;22;19915;-85
2023/09/24 03:48:23;;;;;;;;;;;;;;;;;;6260300;22;20354;-84
2023/09/24 03:50:54;;;;;;;;;;;;;;;;;;6287705;22;20349;-85
2023/09/24 03:53:24;;;;;;;;;;;;;;;;;;6261523;22;19919;-85
2023/09/24 03:55:54;;;;;;;;;;;;;;;;;;6286041;22;19918;-85
2023/09/24 03:58:31;;;;;;;;;;;;;;;;;;;;;
2023/09/24 04:00:59;;;;;;;;;;;;;;;;;;6288298;22;20322;-85
2023/09/24 04:03:26;;;;;;;;;;;;;;;;;;6259334;22;19919;-85
2023/09/24 04:05:53;;;;;;;;;;;;;;;;;;6286434;22;19994;-85
2023/09/24 04:08:20;;;;;;;;;;;;;;;;;;6259761;22;19926;-85
2023/09/24 04:10:50;;;;;;;;;;;;;;;;;;6286133;22;19929;-85
2023/09/24 04:13:21;;;;;;;;;;;;;;;;;;6282995;22;19926;-85
2023/09/24 04:15:48;;;;;;;;;;;;;;;;;;6259353;22;20347;-85
2023/09/24 04:18:18;;;;;;;;;;;;;;;;;;6286808;22;20369;-85
2023/09/24 04:20:45;;;;;;;;;;;;;;;;;;6284410;22;20500;-85
2023/09/24 04:23:15;;;;;;;;;;;;;;;;;;6260441;22;19923;-85
2023/09/24 04:25:48;;;;;;;;;;;;;;;;;;6260450;22;19927;-85
2023/09/24 04:28:20;;;;;;;;;;;;;;;;;;6260249;22;20010;-85
2023/09/24 04:30:50;;;;;;;;;;;;;;;;;;6284748;22;19953;-85
2023/09/24 04:33:21;;;;;;;;;;;;;;;;;;6263006;22;19919;-85
2023/09/24 04:35:48;;;;;;;;;;;;;;;;;;6287677;22;19923;-85
2023/09/24 04:38:17;;;;;;;;;;;;;;;;;;6261192;22;19930;-85
2023/09/24 04:40:44;;;;;;;;;;;;;;;;;;6259859;22;20584;-85
2023/09/24 04:43:15;;;;;;;;;;;;;;;;;;6260130;22;19965;-85
2023/09/24 04:45:47;;;;;;;;;;;;;;;;;;6288150;22;20613;-85
2023/09/24 04:48:14;;;;;;;;;;;;;;;;;;6260935;22;19923;-85
2023/09/24 04:50:45;;;;;;;;;;;;;;;;;;6260500;22;20224;-85
2023/09/24 04:53:12;;;;;;;;;;;;;;;;;;6286039;22;19961;-85
2023/09/24 04:55:39;;;;;;;;;;;;;;;;;;6284627;22;19942;-85
2023/09/24 04:58:06;;;;;;;;;;;;;;;;;;6286147;22;19919;-85
2023/09/24 05:00:34;;;;;;;;;;;;;;;;;;6284715;22;20049;-85
2023/09/24 05:03:01;;;;;;;;;;;;;;;;;;6261991;22;19919;-85
2023/09/24 05:05:29;;;;;;;;;;;;;;;;;;6255505;22;19989;-85
2023/09/24 05:07:56;;;;;;;;;;;;;;;;;;6260196;22;19929;-85
2023/09/24 05:10:30;;;;;;;;;;;;;;;;;;6261401;22;19919;-85
2023/09/24 05:13:00;;;;;;;;;;;;;;;;;;6284708;22;19980;-85
2023/09/24 05:15:51;;;;;;;;;;;;;;;;;;6282545;22;20255;-85
2023/09/24 05:18:20;;;;;;;;;;;;;;;;;;6260374;22;19923;-85
2023/09/24 05:20:50;;;;;;;;;;;;;;;;;;6281157;22;20011;-85
2023/09/24 05:23:18;;;;;;;;;;;;;;;;;;6286388;22;19919;-85
2023/09/24 05:25:45;;;;;;;;;;;;;;;;;;6260293;22;19919;-84
2023/09/24 05:28:13;;;;;;;;;;;;;;;;;;6260516;22;19923;-85
2023/09/24 05:30:40;;;;;;;;;;;;;;;;;;6252564;22;20251;-86
2023/09/24 05:33:08;;;;;;;;;;;;;;;;;;6260620;22;19994;-85
2023/09/24 05:35:35;;;;;;;;;;;;;;;;;;6261637;22;19963;-85
2023/09/24 05:38:06;;;;;;;;;;;;;;;;;;6238662;22;19922;-86
2023/09/24 05:40:38;;;;;;;;;;;;;;;;;;6260203;22;19961;-86
2023/09/24 05:43:15;;;;;;;;;;;;;;;;;;6291789;22;20307;-85
2023/09/24 05:45:43;;;;;;;;;;;;;;;;;;6236927;22;19925;-85
2023/09/24 05:48:10;;;;;;;;;;;;;;;;;;6261732;22;19926;-85
2023/09/24 05:50:43;;;;;;;;;;;;;;;;;;6238548;22;19963;-85
2023/09/24 05:53:10;;;;;;;;;;;;;;;;;;6239792;22;19949;-85
2023/09/24 05:55:41;;;;;;;;;;;;;;;;;;6237119;22;20453;-86
2023/09/24 05:58:08;;;;;;;;;;;;;;;;;;6238883;22;19980;-86
2023/09/24 06:00:52;;;;;;;;;;;;;;;;;;;;;
2023/09/24 06:03:34;;;;;;;;;;;;;;;;;;6280175;22;20006;-85
2023/09/24 06:09:28;;;;;;;;;;;;;;;;;;6290016;22;19925;-86
2023/09/24 06:11:59;;;;;;;;;;;;;;;;;;6239701;22;19930;-86
2023/09/24 06:17:31;;;;;;;;;;;;;;;;;;6261453;22;19930;-86
2023/09/24 06:19:59;;;;;;;;;;;;;;;;;;6240285;22;19925;-86
2023/09/24 06:22:29;;;;;;;;;;;;;;;;;;6238225;22;19976;-86
2023/09/24 06:25:03;;;;;;;;;;;;;;;;;;6240377;22;19945;-86
2023/09/24 06:27:33;;;;;;;;;;;;;;;;;;6236143;22;19977;-86
2023/09/24 06:30:04;;;;;;;;;;;;;;;;;;6238402;22;20216;-86
2023/09/24 06:32:32;;;;;;;;;;;;;;;;;;6262516;22;20738;-86
2023/09/24 06:35:03;;;;;;;;;;;;;;;;;;6237831;22;19919;-86
2023/09/24 06:37:53;;;;;;;;;;;;;;;;;;6237536;22;20251;-86
2023/09/24 06:40:23;;;;;;;;;;;;;;;;;;6264472;22;19923;-86
2023/09/24 06:42:52;;;;;;;;;;;;;;;;;;6238020;22;19983;-86
2023/09/24 06:48:58;;;;;;;;;;;;;;;;;;;;;
2023/09/24 06:51:27;;;;;;;;;;;;;;;;;;6260925;22;19918;-87
2023/09/24 06:56:58;;;;;;;;;;;;;;;;;;6301858;22;20350;-86
2023/09/24 07:02:42;;;;;;;;;;;;;;;;;;6258603;22;19918;-86
2023/09/24 07:08:45;;;;;;;;;;;;;;;;;;6211591;22;19985;-87
2023/09/24 07:11:22;;;;;;;;;;;;;;;;;;6229943;22;20067;-86
2023/09/24 07:13:53;;;;;;;;;;;;;;;;;;6200435;22;19973;-87
2023/09/24 07:22:59;;;;;;;;;;;;;;;;;;6224803;22;19929;-86
2023/09/24 07:31:48;;;;;;;;;;;;;;;;;;6322376;22;19919;-86
2023/09/24 07:39:52;;;;;;;;;;;;;;;;;;;;;
2023/09/24 07:49:06;;;;;;;;;;;;;;;;;;;;;
2023/09/24 07:51:54;;;;;;;;;;;;;;;;;;6288480;22;20037;-86
2023/09/24 07:54:29;;;;;;;;;;;;;;;;;;6288660;22;19957;-86
2023/09/24 08:03:18;;;;;;;;;;;;;;;;;;;;;
2023/09/24 08:21:41;;;;;;;;;;;;;;;;;;6300214;22;20230;-85
2023/09/24 08:24:24;;;;;;;;;;;;;;;;;;6292298;22;20339;-85
2023/09/24 08:27:03;;;;;;;;;;;;;;;;;;6318808;22;20355;-86
2023/09/24 08:32:00;;;;;;;;;;;;;;;;;;6317306;22;19965;-88
2023/09/24 08:34:27;;;;;;;;;;;;;;;;;;6314836;22;19989;-88
2023/09/24 08:36:54;;;;;;;;;;;;;;;;;;6316474;22;19922;-88
2023/09/24 08:39:21;;;;;;;;;;;;;;;;;;6288896;22;19963;-88
2023/09/24 08:41:47;;;;;;;;;;;;;;;;;;6287212;22;19926;-88
2023/09/24 08:44:13;;;;;;;;;;;;;;;;;;6316702;22;19971;-87
2023/09/24 08:46:41;;;;;;;;;;;;;;;;;;6288929;22;19985;-88
2023/09/24 08:49:08;;;;;;;;;;;;;;;;;;6317538;22;19926;-88
2023/09/24 08:51:35;;;;;;;;;;;;;;;;;;6315632;22;19918;-88
2023/09/24 08:54:02;;;;;;;;;;;;;;;;;;6315528;22;19949;-88
2023/09/24 08:56:29;;;;;;;;;;;;;;;;;;6313645;22;19926;-88
2023/09/24 08:58:55;;;;;;;;;;;;;;;;;;6288319;22;20388;-88
2023/09/24 09:01:21;;;;;;;;;;;;;;;;;;6318399;22;19919;-87
2023/09/24 09:03:49;;;;;;;;;;;;;;;;;;6311762;22;19922;-88
2023/09/24 09:06:15;;;;;;;;;;;;;;;;;;6289044;22;19918;-87
2023/09/24 09:08:41;;;;;;;;;;;;;;;;;;6287809;22;19984;-88
2023/09/24 09:11:08;;;;;;;;;;;;;;;;;;6314995;22;20009;-88
2023/09/24 09:13:35;;;;;;;;;;;;;;;;;;6287421;22;19919;-88
2023/09/24 09:16:03;;;;;;;;;;;;;;;;;;6316229;22;19919;-87
2023/09/24 09:18:31;;;;;;;;;;;;;;;;;;6294673;22;19919;-88
2023/09/24 09:21:01;;;;;;;;;;;;;;;;;;6261721;22;19968;-87
2023/09/24 09:23:29;;;;;;;;;;;;;;;;;;6282558;22;19929;-87
2023/09/24 09:25:57;;;;;;;;;;;;;;;;;;6261083;22;19919;-87
2023/09/24 09:28:24;;;;;;;;;;;;;;;;;;6286880;22;19923;-88
2023/09/24 09:30:51;;;;;;;;;;;;;;;;;;6262184;22;19923;-88
2023/09/24 09:33:19;;;;;;;;;;;;;;;;;;6285094;22;19923;-87
2023/09/24 09:35:48;;;;;;;;;;;;;;;;;;6279762;22;20400;-87
2023/09/24 09:38:14;;;;;;;;;;;;;;;;;;6259734;22;19942;-87
2023/09/24 09:40:41;;;;;;;;;;;;;;;;;;6283755;22;19919;-87
2023/09/24 09:43:12;;;;;;;;;;;;;;;;;;6288737;22;19919;-87
2023/09/24 09:45:39;;;;;;;;;;;;;;;;;;6286193;22;20247;-87
2023/09/24 09:48:06;;;;;;;;;;;;;;;;;;6286900;22;19923;-87
2023/09/24 09:50:32;;;;;;;;;;;;;;;;;;6286337;22;19922;-87
2023/09/24 09:52:59;;;;;;;;;;;;;;;;;;6260922;22;19926;-87
2023/09/24 09:55:25;;;;;;;;;;;;;;;;;;6259702;22;19982;-87
2023/09/24 09:57:51;;;;;;;;;;;;;;;;;;6285149;22;19919;-87
2023/09/24 10:00:17;;;;;;;;;;;;;;;;;;6263124;22;20267;-86
2023/09/24 10:02:47;;;;;;;;;;;;;;;;;;6259778;22;20611;-86
2023/09/24 10:05:13;;;;;;;;;;;;;;;;;;6286750;22;19999;-87
2023/09/24 10:07:40;;;;;;;;;;;;;;;;;;6286375;22;19923;-86
2023/09/24 10:10:10;;;;;;;;;;;;;;;;;;6287626;22;19973;-86
2023/09/24 10:12:39;;;;;;;;;;;;;;;;;;6259176;22;19919;-87
2023/09/24 10:15:06;;;;;;;;;;;;;;;;;;6287004;22;20688;-87
2023/09/24 10:17:33;;;;;;;;;;;;;;;;;;6282632;22;19923;-87
2023/09/24 10:20:06;;;;;;;;;;;;;;;;;;6262251;22;19953;-86
2023/09/24 10:22:34;;;;;;;;;;;;;;;;;;6286731;22;20509;-87
2023/09/24 10:25:02;;;;;;;;;;;;;;;;;;6263376;22;19925;-87
2023/09/24 10:30:17;;;;;;;;;;;;;;;;;;6289264;22;19929;-87
2023/09/24 10:32:43;;;;;;;;;;;;;;;;;;6259207;22;19918;-87
2023/09/24 10:35:10;;;;;;;;;;;;;;;;;;6238072;22;19919;-87
2023/09/24 10:37:38;;;;;;;;;;;;;;;;;;6233488;22;19919;-87
2023/09/24 10:40:09;;;;;;;;;;;;;;;;;;6261271;22;19922;-87
2023/09/24 10:42:47;;;;;;;;;;;;;;;;;;6259873;22;19918;-87
2023/09/24 10:45:13;;;;;;;;;;;;;;;;;;6236102;22;20352;-87
2023/09/24 10:47:41;;;;;;;;;;;;;;;;;;6229511;22;19965;-87
2023/09/24 10:50:09;;;;;;;;;;;;;;;;;;6238666;22;19919;-87
2023/09/24 10:52:36;;;;;;;;;;;;;;;;;;6234005;22;19926;-87
2023/09/24 10:55:02;;;;;;;;;;;;;;;;;;6235922;22;19933;-86
2023/09/24 10:57:30;;;;;;;;;;;;;;;;;;6234047;22;19919;-87
2023/09/24 11:00:08;;;;;;;;;;;;;;;;;;6259972;22;19946;-87
2023/09/24 11:02:35;;;;;;;;;;;;;;;;;;6233914;22;20378;-88
2023/09/24 11:05:02;;;;;;;;;;;;;;;;;;6261284;22;20445;-88
2023/09/24 11:07:30;;;;;;;;;;;;;;;;;;6232206;22;19923;-88
2023/09/24 11:09:55;;;;;;;;;;;;;;;;;;6235262;22;19919;-87
2023/09/24 11:12:23;;;;;;;;;;;;;;;;;;6260156;22;19938;-88
2023/09/24 11:14:51;;;;;;;;;;;;;;;;;;6229360;22;19919;-87
2023/09/24 11:17:25;;;;;;;;;;;;;;;;;;6256659;22;19918;-87
2023/09/24 11:20:02;;;;;;;;;;;;;;;;;;6233067;22;20082;-88
2023/09/24 11:22:42;;;;;;;;;;;;;;;;;;;;;
2023/09/24 11:25:38;;;;;;;;;;;;;;;;;;6282341;22;19918;-87
2023/09/24 11:28:10;;;;;;;;;;;;;;;;;;6279621;22;19929;-86
2023/09/24 11:30:49;;;;;;;;;;;;;;;;;;6224750;22;20335;-87
2023/09/24 11:33:26;;;;;;;;;;;;;;;;;;;;;
2023/09/24 11:36:14;;;;;;;;;;;;;;;;;;6193440;23;20336;-87
2023/09/24 11:38:53;;;;;;;;;;;;;;;;;;6212463;23;19920;-87
2023/09/24 11:41:42;;;;;;;;;;;;;;;;;;;;;
2023/09/24 11:44:16;;;;;;;;;;;;;;;;;;6194384;23;20312;-87
2023/09/24 11:46:47;;;;;;;;;;;;;;;;;;6192801;23;19919;-87
2023/09/24 11:49:14;;;;;;;;;;;;;;;;;;6193932;23;20399;-87
2023/09/24 11:51:53;;;;;;;;;;;;;;;;;;6217492;23;19920;-87
2023/09/24 11:57:16;;;;;;;;;;;;;;;;;;6198665;22;20002;-87
2023/09/24 11:59:56;;;;;;;;;;;;;;;;;;6247923;22;19942;-87
2023/09/24 12:02:32;;;;;;;;;;;;;;;;;;6243604;22;19919;-87
2023/09/24 12:05:13;;;;;;;;;;;;;;;;;;6245102;22;19942;-88
2023/09/24 12:07:48;;;;;;;;;;;;;;;;;;6221124;22;20583;-87
2023/09/24 12:10:38;;;;;;;;;;;;;;;;;;6164431;23;19920;-87
2023/09/24 12:13:18;;;;;;;;;;;;;;;;;;6159545;23;19978;-87
2023/09/24 12:28:34;;;;;;;;;;;;;;;;;;;;;
2023/09/24 12:35:10;;;;;;;;;;;;;;;;;;;;;
2023/09/24 12:37:53;;;;;;;;;;;;;;;;;;;;;
2023/09/24 12:56:57;;;;;;;;;;;;;;;;;;;;;
2023/09/24 13:03:23;;;;;;;;;;;;;;;;;;;;;
2023/09/24 13:37:37;;;;;;;;;;;;;;;;;;;;;
2023/09/24 13:46:57;;;;;;;;;;;;;;;;;;6040499;23;19966;-87
2023/09/24 13:52:57;;;;;;;;;;;;;;;;;;5935214;24;19922;-87
2023/09/24 14:14:00;;;;;;;;;;;;;;;;;;5988270;23;19965;-87
2023/09/24 14:16:27;;;;;;;;;;;;;;;;;;5987105;23;19922;-86
2023/09/24 14:19:03;;;;;;;;;;;;;;;;;;5998739;23;19922;-87
2023/09/24 14:21:54;;;;;;;;;;;;;;;;;;6263024;22;19923;-87
2023/09/24 14:27:37;;;;;;;;;;;;;;;;;;6212722;22;20005;-87
2023/09/24 14:30:12;;;;;;;;;;;;;;;;;;6229012;22;19923;-87
2023/09/24 14:32:45;;;;;;;;;;;;;;;;;;6206992;22;19923;-87
2023/09/24 14:35:15;;;;;;;;;;;;;;;;;;6257853;22;20311;-87
2023/09/24 14:37:44;;;;;;;;;;;;;;;;;;6231044;22;20553;-87
2023/09/24 14:40:13;;;;;;;;;;;;;;;;;;6234959;22;20610;-87
2023/09/24 14:48:37;;;;;;;;;;;;;;;;;;6318854;22;19926;-85
2023/09/24 14:51:04;;;;;;;;;;;;;;;;;;6292697;22;20568;-85
2023/09/24 14:53:34;;;;;;;;;;;;;;;;;;6289105;22;20002;-85
2023/09/24 14:56:08;;;;;;;;;;;;;;;;;;6292680;22;19926;-85
2023/09/24 14:58:34;;;;;;;;;;;;;;;;;;6288206;22;19919;-85
2023/09/24 15:01:13;;;;;;;;;;;;;;;;;;6316094;22;19918;-84
2023/09/24 15:03:45;;;;;;;;;;;;;;;;;;6288785;22;20412;-85
2023/09/24 15:06:12;;;;;;;;;;;;;;;;;;6317867;22;20528;-85
2023/09/24 15:08:43;;;;;;;;;;;;;;;;;;6314423;22;19922;-86
2023/09/24 15:11:13;;;;;;;;;;;;;;;;;;6291551;22;19919;-85
2023/09/24 15:13:43;;;;;;;;;;;;;;;;;;6287796;22;20396;-85
2023/09/24 15:16:14;;;;;;;;;;;;;;;;;;6317278;22;19919;-85
2023/09/24 15:18:41;;;;;;;;;;;;;;;;;;6289340;22;19945;-85
2023/09/24 15:21:08;;;;;;;;;;;;;;;;;;6289596;22;19918;-85
2023/09/24 15:23:35;;;;;;;;;;;;;;;;;;6287523;22;19934;-85
2023/09/24 15:26:05;;;;;;;;;;;;;;;;;;6288130;22;19922;-85
2023/09/24 15:28:51;;;;;;;;;;;;;;;;;;6290948;22;19926;-86
2023/09/24 15:31:19;;;;;;;;;;;;;;;;;;6292306;22;19915;-86
2023/09/24 15:33:45;;;;;;;;;;;;;;;;;;6316363;22;19919;-85
2023/09/24 15:36:12;;;;;;;;;;;;;;;;;;6290384;22;19929;-85
2023/09/24 15:38:40;;;;;;;;;;;;;;;;;;6287631;22;20250;-86
2023/09/24 15:41:08;;;;;;;;;;;;;;;;;;6291478;22;19918;-85
2023/09/24 15:43:35;;;;;;;;;;;;;;;;;;6287384;22;19918;-85
2023/09/24 15:46:05;;;;;;;;;;;;;;;;;;6314298;22;19922;-86
2023/09/24 15:48:32;;;;;;;;;;;;;;;;;;6314563;22;19926;-85
2023/09/24 15:50:59;;;;;;;;;;;;;;;;;;6291414;22;19993;-85
2023/09/24 15:53:27;;;;;;;;;;;;;;;;;;6289593;22;20315;-85
2023/09/24 15:55:54;;;;;;;;;;;;;;;;;;6291976;22;19919;-85
2023/09/24 15:58:21;;;;;;;;;;;;;;;;;;6314770;22;19919;-86
2023/09/24 16:03:51;;;;;;;;;;;;;;;;;;6310100;22;20287;-84
2023/09/24 16:06:28;;;;;;;;;;;;;;;;;;6291505;22;20319;-85
2023/09/24 16:08:55;;;;;;;;;;;;;;;;;;6290559;22;20251;-85
2023/09/24 16:11:25;;;;;;;;;;;;;;;;;;6318838;22;20335;-85
2023/09/24 16:13:52;;;;;;;;;;;;;;;;;;6290107;22;19961;-85
2023/09/24 16:16:19;;;;;;;;;;;;;;;;;;6290560;22;19918;-85
2023/09/24 16:21:31;;;;;;;;;;;;;;;;;;6284854;22;19930;-85
2023/09/24 16:23:58;;;;;;;;;;;;;;;;;;6232620;22;19918;-85
2023/09/24 16:26:38;;;;;;;;;;;;;;;;;;6233649;22;19919;-85
2023/09/24 16:29:10;;;;;;;;;;;;;;;;;;6260048;22;20267;-85
2023/09/24 16:31:45;;;;;;;;;;;;;;;;;;6231444;22;19933;-86
2023/09/24 16:34:19;;;;;;;;;;;;;;;;;;6232338;22;19919;-85
2023/09/24 16:36:46;;;;;;;;;;;;;;;;;;6232736;22;19930;-85
2023/09/24 16:39:17;;;;;;;;;;;;;;;;;;6233905;22;19992;-85
2023/09/24 16:44:39;;;;;;;;;;;;;;;;;;6237223;22;19919;-85
2023/09/24 16:47:10;;;;;;;;;;;;;;;;;;6234352;22;19925;-85
2023/09/24 16:49:40;;;;;;;;;;;;;;;;;;6233423;22;20229;-85
2023/09/24 16:52:13;;;;;;;;;;;;;;;;;;6258786;22;20315;-85
2023/09/24 16:54:40;;;;;;;;;;;;;;;;;;6285873;22;19926;-85
2023/09/24 16:57:13;;;;;;;;;;;;;;;;;;6235346;22;19919;-85
2023/09/24 16:59:40;;;;;;;;;;;;;;;;;;6231014;22;20670;-85
2023/09/24 17:02:07;;;;;;;;;;;;;;;;;;6231609;22;19989;-85
2023/09/24 17:04:34;;;;;;;;;;;;;;;;;;6228968;22;19923;-85
2023/09/24 17:23:35;;;;;;;;;;;;;;;;;;6081062;23;19923;-85
2023/09/24 17:26:05;;;;;;;;;;;;;;;;;;6065568;23;19960;-85
2023/09/24 17:28:35;;;;;;;;;;;;;;;;;;6052102;23;20297;-86
2023/09/24 17:31:02;;;;;;;;;;;;;;;;;;6084247;23;19966;-85
2023/09/24 17:33:30;;;;;;;;;;;;;;;;;;6135056;23;20435;-86
2023/09/24 17:36:11;;;;;;;;;;;;;;;;;;6132418;22;20336;-85
2023/09/24 17:38:38;;;;;;;;;;;;;;;;;;6232115;22;20010;-85
2023/09/24 17:41:06;;;;;;;;;;;;;;;;;;6260105;22;19919;-86
2023/09/24 17:43:33;;;;;;;;;;;;;;;;;;6231883;22;19925;-85
2023/09/24 17:46:01;;;;;;;;;;;;;;;;;;6235356;22;19923;-85
2023/09/24 17:48:31;;;;;;;;;;;;;;;;;;6258997;22;20399;-85
2023/09/24 17:50:57;;;;;;;;;;;;;;;;;;6286676;22;20304;-85
2023/09/24 17:53:25;;;;;;;;;;;;;;;;;;6234558;22;19946;-86
2023/09/24 17:55:56;;;;;;;;;;;;;;;;;;6234862;22;19919;-85
2023/09/24 17:58:23;;;;;;;;;;;;;;;;;;6259992;22;20319;-85
2023/09/24 18:01:05;;;;;;;;;;;;;;;;;;6236894;22;19926;-85
2023/09/24 18:03:33;;;;;;;;;;;;;;;;;;6258759;22;19918;-85
2023/09/24 18:06:00;;;;;;;;;;;;;;;;;;6257228;22;19919;-85
2023/09/24 18:08:28;;;;;;;;;;;;;;;;;;6231914;22;19977;-86
2023/09/24 18:14:14;;;;;;;;;;;;;;;;;;6220360;22;19918;-85
2023/09/24 18:16:44;;;;;;;;;;;;;;;;;;6257674;22;19923;-86
2023/09/24 18:22:20;;;;;;;;;;;;;;;;;;6166004;23;19924;-86
2023/09/24 18:24:56;;;;;;;;;;;;;;;;;;6164313;23;19920;-85
2023/09/24 18:27:27;;;;;;;;;;;;;;;;;;6165651;23;19923;-85
2023/09/24 18:29:58;;;;;;;;;;;;;;;;;;6161515;22;19919;-85
2023/09/24 18:35:28;;;;;;;;;;;;;;;;;;6175825;22;20670;-86
2023/09/24 18:37:56;;;;;;;;;;;;;;;;;;6229001;22;19930;-85
2023/09/24 18:40:25;;;;;;;;;;;;;;;;;;6203169;22;19919;-85
2023/09/24 18:42:52;;;;;;;;;;;;;;;;;;6206156;22;19919;-85
2023/09/24 18:45:30;;;;;;;;;;;;;;;;;;6205433;22;19946;-85
2023/09/24 18:47:58;;;;;;;;;;;;;;;;;;6206137;22;20240;-85
2023/09/24 18:50:43;;;;;;;;;;;;;;;;;;6203882;22;19950;-85
2023/09/24 18:53:19;;;;;;;;;;;;;;;;;;6204021;22;19970;-85
2023/09/24 18:55:56;;;;;;;;;;;;;;;;;;6232445;22;19989;-85
2023/09/24 18:58:26;;;;;;;;;;;;;;;;;;6205762;22;19919;-85
2023/09/24 19:00:58;;;;;;;;;;;;;;;;;;6206279;22;19946;-86
2023/09/24 19:06:27;;;;;;;;;;;;;;;;;;6193328;23;19923;-86
2023/09/24 19:08:53;;;;;;;;;;;;;;;;;;6231418;22;20753;-85
2023/09/24 19:11:24;;;;;;;;;;;;;;;;;;6260995;22;19945;-86
2023/09/24 19:14:03;;;;;;;;;;;;;;;;;;6261940;22;19919;-86
2023/09/24 19:16:34;;;;;;;;;;;;;;;;;;6289583;22;20295;-85
2023/09/24 19:19:01;;;;;;;;;;;;;;;;;;6263674;22;19929;-85
2023/09/24 19:21:30;;;;;;;;;;;;;;;;;;6234546;22;19979;-85
2023/09/24 19:23:58;;;;;;;;;;;;;;;;;;6235354;22;20520;-85
2023/09/24 19:26:25;;;;;;;;;;;;;;;;;;6233901;22;19923;-86
2023/09/24 19:28:55;;;;;;;;;;;;;;;;;;6263452;22;19923;-86
2023/09/24 19:31:22;;;;;;;;;;;;;;;;;;6236274;22;19926;-86
2023/09/24 19:37:01;;;;;;;;;;;;;;;;;;6228959;22;20263;-86
2023/09/24 19:39:28;;;;;;;;;;;;;;;;;;6234754;22;19959;-86
2023/09/24 19:42:04;;;;;;;;;;;;;;;;;;6236520;22;19994;-86
2023/09/24 19:44:50;;;;;;;;;;;;;;;;;;6276276;22;19915;-86
2023/09/24 19:47:19;;;;;;;;;;;;;;;;;;6268068;22;19919;-86
2023/09/24 19:49:58;;;;;;;;;;;;;;;;;;6296142;22;19942;-86
2023/09/24 19:52:25;;;;;;;;;;;;;;;;;;6240041;22;19919;-86
2023/09/24 19:54:53;;;;;;;;;;;;;;;;;;6239735;22;19925;-86
2023/09/24 19:57:20;;;;;;;;;;;;;;;;;;6263472;22;20041;-86
2023/09/24 19:59:48;;;;;;;;;;;;;;;;;;6264947;22;19919;-85
2023/09/24 20:02:15;;;;;;;;;;;;;;;;;;6238341;22;19919;-85
2023/09/24 20:04:43;;;;;;;;;;;;;;;;;;6239475;22;19915;-86
2023/09/24 20:07:11;;;;;;;;;;;;;;;;;;6241093;22;19919;-86
2023/09/24 20:09:39;;;;;;;;;;;;;;;;;;6240363;22;19930;-85
2023/09/24 20:12:06;;;;;;;;;;;;;;;;;;6268226;22;19919;-85
2023/09/24 20:14:34;;;;;;;;;;;;;;;;;;6240151;22;19919;-85
2023/09/24 20:17:03;;;;;;;;;;;;;;;;;;6267769;22;19918;-85
2023/09/24 20:19:45;;;;;;;;;;;;;;;;;;6264197;22;20224;-85
2023/09/24 20:22:13;;;;;;;;;;;;;;;;;;6260522;22;19931;-85
2023/09/24 20:24:40;;;;;;;;;;;;;;;;;;6256771;22;19919;-85
2023/09/24 20:27:07;;;;;;;;;;;;;;;;;;6260073;22;19919;-85
2023/09/24 20:29:41;;;;;;;;;;;;;;;;;;6234345;22;20273;-85
2023/09/24 20:32:08;;;;;;;;;;;;;;;;;;6235661;22;20251;-85
2023/09/24 20:34:36;;;;;;;;;;;;;;;;;;6232987;22;20016;-85
2023/09/24 20:37:03;;;;;;;;;;;;;;;;;;6258398;22;19930;-85
2023/09/24 20:39:30;;;;;;;;;;;;;;;;;;6257410;22;19966;-85
2023/09/24 20:44:57;;;;;;;;;;;;;;;;;;6246868;22;20251;-85
2023/09/24 20:47:23;;;;;;;;;;;;;;;;;;6232335;22;19964;-85
2023/09/24 20:49:50;;;;;;;;;;;;;;;;;;6234698;22;19986;-85
2023/09/24 20:52:21;;;;;;;;;;;;;;;;;;6258312;22;19920;-86
2023/09/24 20:54:48;;;;;;;;;;;;;;;;;;6257259;22;20297;-85
2023/09/24 20:57:16;;;;;;;;;;;;;;;;;;6234689;22;20481;-85
2023/09/24 20:59:43;;;;;;;;;;;;;;;;;;6233146;22;19926;-85
2023/09/24 21:02:13;;;;;;;;;;;;;;;;;;6234088;22;19919;-85